sensor_id;sensor_type;location;lat;lon;timestamp;temperature;humidity
40758;DHT22;26462;47.384;19.218;2023-07-20T00:00:07;24.40;97.80
40758;DHT22;26462;47.384;19.218;2023-07-20T00:02:43;24.30;97.70
40758;DHT22;26462;47.384;19.218;2023-07-20T00:05:11;24.30;97.90
40758;DHT22;26462;47.384;19.218;2023-07-20T00:07:38;24.30;97.90
40758;DHT22;26462;47.384;19.218;2023-07-20T00:10:06;24.30;97.80
40758;DHT22;26462;47.384;19.218;2023-07-20T00:12:33;24.20;98.10
40758;DHT22;26462;47.384;19.218;2023-07-20T00:15:00;24.20;98.20
40758;DHT22;26462;47.384;19.218;2023-07-20T00:17:28;24.20;98.20
40758;DHT22;26462;47.384;19.218;2023-07-20T00:19:55;24.20;98.40
40758;DHT22;26462;47.384;19.218;2023-07-20T00:22:22;24.10;98.70
40758;DHT22;26462;47.384;19.218;2023-07-20T00:24:49;24.10;98.70
40758;DHT22;26462;47.384;19.218;2023-07-20T00:27:16;24.10;98.70
40758;DHT22;26462;47.384;19.218;2023-07-20T00:29:44;24.10;98.70
40758;DHT22;26462;47.384;19.218;2023-07-20T00:35:25;24.00;99.10
40758;DHT22;26462;47.384;19.218;2023-07-20T00:37:53;24.00;99.10
40758;DHT22;26462;47.384;19.218;2023-07-20T00:40:20;23.90;99.20
40758;DHT22;26462;47.384;19.218;2023-07-20T00:42:49;23.90;99.10
40758;DHT22;26462;47.384;19.218;2023-07-20T00:45:23;23.90;99.40
40758;DHT22;26462;47.384;19.218;2023-07-20T00:47:51;23.90;99.20
40758;DHT22;26462;47.384;19.218;2023-07-20T01:39:24;23.60;99.10
40758;DHT22;26462;47.384;19.218;2023-07-20T01:42:31;23.60;99.20
40758;DHT22;26462;47.384;19.218;2023-07-20T01:45:01;23.70;98.80
40758;DHT22;26462;47.384;19.218;2023-07-20T01:47:28;23.70;98.90
40758;DHT22;26462;47.384;19.218;2023-07-20T01:49:58;23.70;99.20
40758;DHT22;26462;47.384;19.218;2023-07-20T01:52:26;23.60;99.40
40758;DHT22;26462;47.384;19.218;2023-07-20T01:54:53;23.60;99.60
40758;DHT22;26462;47.384;19.218;2023-07-20T01:57:21;23.60;99.80
40758;DHT22;26462;47.384;19.218;2023-07-20T01:59:48;23.60;99.90
40758;DHT22;26462;47.384;19.218;2023-07-20T04:51:30;23.60;94.40
40758;DHT22;26462;47.384;19.218;2023-07-20T04:53:58;23.80;94.80
40758;DHT22;26462;47.384;19.218;2023-07-20T04:56:30;23.80;94.00
40758;DHT22;26462;47.384;19.218;2023-07-20T04:58:58;23.90;93.70
40758;DHT22;26462;47.384;19.218;2023-07-20T05:01:25;23.80;93.50
40758;DHT22;26462;47.384;19.218;2023-07-20T05:03:53;24.00;94.10
40758;DHT22;26462;47.384;19.218;2023-07-20T05:06:21;24.10;93.80
40758;DHT22;26462;47.384;19.218;2023-07-20T05:08:49;24.20;93.30
40758;DHT22;26462;47.384;19.218;2023-07-20T05:11:16;24.20;92.90
40758;DHT22;26462;47.384;19.218;2023-07-20T05:13:45;24.30;93.20
40758;DHT22;26462;47.384;19.218;2023-07-20T05:16:12;24.30;93.20
40758;DHT22;26462;47.384;19.218;2023-07-20T05:18:39;24.50;93.00
40758;DHT22;26462;47.384;19.218;2023-07-20T05:21:08;24.50;92.30
40758;DHT22;26462;47.384;19.218;2023-07-20T05:23:35;24.40;91.50
40758;DHT22;26462;47.384;19.218;2023-07-20T05:26:03;24.50;91.50
40758;DHT22;26462;47.384;19.218;2023-07-20T05:28:30;24.60;91.50
40758;DHT22;26462;47.384;19.218;2023-07-20T05:30:58;24.80;91.00
40758;DHT22;26462;47.384;19.218;2023-07-20T05:33:28;24.80;90.10
40758;DHT22;26462;47.384;19.218;2023-07-20T05:35:56;24.90;89.80
40758;DHT22;26462;47.384;19.218;2023-07-20T05:38:23;25.00;89.40
40758;DHT22;26462;47.384;19.218;2023-07-20T05:40:51;25.10;87.70
40758;DHT22;26462;47.384;19.218;2023-07-20T05:43:18;25.20;88.50
40758;DHT22;26462;47.384;19.218;2023-07-20T05:45:45;25.10;87.40
40758;DHT22;26462;47.384;19.218;2023-07-20T05:48:15;25.30;85.70
40758;DHT22;26462;47.384;19.218;2023-07-20T05:50:43;25.50;85.60
40758;DHT22;26462;47.384;19.218;2023-07-20T05:53:11;25.60;84.70
40758;DHT22;26462;47.384;19.218;2023-07-20T05:55:39;25.80;84.20
40758;DHT22;26462;47.384;19.218;2023-07-20T05:58:07;25.90;83.10
40758;DHT22;26462;47.384;19.218;2023-07-20T06:00:34;25.80;83.10
40758;DHT22;26462;47.384;19.218;2023-07-20T06:03:01;25.90;81.60
40758;DHT22;26462;47.384;19.218;2023-07-20T06:05:29;26.10;81.40
40758;DHT22;26462;47.384;19.218;2023-07-20T06:07:57;26.10;79.50
40758;DHT22;26462;47.384;19.218;2023-07-20T06:10:25;26.20;80.50
40758;DHT22;26462;47.384;19.218;2023-07-20T06:12:53;26.20;78.90
40758;DHT22;26462;47.384;19.218;2023-07-20T06:15:27;26.10;77.90
40758;DHT22;26462;47.384;19.218;2023-07-20T06:17:55;26.40;78.20
40758;DHT22;26462;47.384;19.218;2023-07-20T06:20:24;26.60;78.10
40758;DHT22;26462;47.384;19.218;2023-07-20T06:22:51;26.70;76.10
40758;DHT22;26462;47.384;19.218;2023-07-20T06:25:18;26.80;75.50
40758;DHT22;26462;47.384;19.218;2023-07-20T06:27:45;27.00;74.90
40758;DHT22;26462;47.384;19.218;2023-07-20T06:30:13;26.90;73.50
40758;DHT22;26462;47.384;19.218;2023-07-20T06:32:40;27.00;73.30
40758;DHT22;26462;47.384;19.218;2023-07-20T06:35:07;27.10;73.30
40758;DHT22;26462;47.384;19.218;2023-07-20T06:37:35;27.20;73.30
40758;DHT22;26462;47.384;19.218;2023-07-20T06:40:03;27.30;73.30
40758;DHT22;26462;47.384;19.218;2023-07-20T06:42:34;27.50;71.70
40758;DHT22;26462;47.384;19.218;2023-07-20T06:45:04;27.60;72.20
40758;DHT22;26462;47.384;19.218;2023-07-20T06:47:31;27.80;71.20
40758;DHT22;26462;47.384;19.218;2023-07-20T06:49:58;28.00;70.60
40758;DHT22;26462;47.384;19.218;2023-07-20T06:52:26;28.20;71.50
40758;DHT22;26462;47.384;19.218;2023-07-20T06:54:53;28.10;70.20
40758;DHT22;26462;47.384;19.218;2023-07-20T06:57:20;27.60;71.10
40758;DHT22;26462;47.384;19.218;2023-07-20T06:59:48;27.30;70.90
40758;DHT22;26462;47.384;19.218;2023-07-20T07:02:16;27.00;71.30
40758;DHT22;26462;47.384;19.218;2023-07-20T07:04:48;27.00;71.10
40758;DHT22;26462;47.384;19.218;2023-07-20T07:07:16;27.10;70.80
40758;DHT22;26462;47.384;19.218;2023-07-20T07:09:52;27.50;70.40
40758;DHT22;26462;47.384;19.218;2023-07-20T07:12:19;27.70;66.60
40758;DHT22;26462;47.384;19.218;2023-07-20T07:14:46;27.80;66.00
40758;DHT22;26462;47.384;19.218;2023-07-20T07:17:14;28.00;65.80
40758;DHT22;26462;47.384;19.218;2023-07-20T07:19:45;28.00;65.30
40758;DHT22;26462;47.384;19.218;2023-07-20T07:22:15;28.10;66.00
40758;DHT22;26462;47.384;19.218;2023-07-20T07:24:45;27.90;65.80
40758;DHT22;26462;47.384;19.218;2023-07-20T07:27:12;28.30;67.00
40758;DHT22;26462;47.384;19.218;2023-07-20T07:29:40;28.30;64.30
40758;DHT22;26462;47.384;19.218;2023-07-20T07:32:10;28.30;64.20
40758;DHT22;26462;47.384;19.218;2023-07-20T07:34:38;28.20;63.30
40758;DHT22;26462;47.384;19.218;2023-07-20T07:37:05;28.30;63.00
40758;DHT22;26462;47.384;19.218;2023-07-20T07:39:33;28.00;63.50
40758;DHT22;26462;47.384;19.218;2023-07-20T07:42:01;27.90;63.20
40758;DHT22;26462;47.384;19.218;2023-07-20T07:44:29;28.10;63.00
40758;DHT22;26462;47.384;19.218;2023-07-20T07:46:56;27.80;62.10
40758;DHT22;26462;47.384;19.218;2023-07-20T07:49:23;27.90;62.20
40758;DHT22;26462;47.384;19.218;2023-07-20T07:51:50;28.10;61.80
40758;DHT22;26462;47.384;19.218;2023-07-20T07:54:18;28.20;62.20
40758;DHT22;26462;47.384;19.218;2023-07-20T07:56:45;28.20;61.40
40758;DHT22;26462;47.384;19.218;2023-07-20T07:59:12;27.90;61.40
40758;DHT22;26462;47.384;19.218;2023-07-20T08:01:40;28.00;62.50
40758;DHT22;26462;47.384;19.218;2023-07-20T08:04:08;28.00;61.90
40758;DHT22;26462;47.384;19.218;2023-07-20T08:06:37;27.90;61.90
40758;DHT22;26462;47.384;19.218;2023-07-20T08:09:04;28.10;62.50
40758;DHT22;26462;47.384;19.218;2023-07-20T08:11:33;28.20;62.50
40758;DHT22;26462;47.384;19.218;2023-07-20T08:14:01;28.10;61.40
40758;DHT22;26462;47.384;19.218;2023-07-20T08:16:30;27.90;61.40
40758;DHT22;26462;47.384;19.218;2023-07-20T08:19:00;27.40;61.40
40758;DHT22;26462;47.384;19.218;2023-07-20T08:21:29;27.70;61.40
40758;DHT22;26462;47.384;19.218;2023-07-20T08:23:56;27.80;62.10
40758;DHT22;26462;47.384;19.218;2023-07-20T08:26:24;28.20;61.80
40758;DHT22;26462;47.384;19.218;2023-07-20T08:28:52;28.40;61.70
40758;DHT22;26462;47.384;19.218;2023-07-20T08:31:19;28.50;62.20
40758;DHT22;26462;47.384;19.218;2023-07-20T08:33:47;28.60;62.00
40758;DHT22;26462;47.384;19.218;2023-07-20T08:36:16;28.60;61.30
40758;DHT22;26462;47.384;19.218;2023-07-20T08:38:43;28.80;62.00
40758;DHT22;26462;47.384;19.218;2023-07-20T08:41:10;28.90;61.10
40758;DHT22;26462;47.384;19.218;2023-07-20T08:43:42;28.80;60.90
40758;DHT22;26462;47.384;19.218;2023-07-20T08:46:11;28.90;61.30
40758;DHT22;26462;47.384;19.218;2023-07-20T08:48:42;29.00;60.40
40758;DHT22;26462;47.384;19.218;2023-07-20T08:51:10;29.00;61.20
40758;DHT22;26462;47.384;19.218;2023-07-20T08:53:40;28.90;60.80
40758;DHT22;26462;47.384;19.218;2023-07-20T08:56:09;29.10;60.80
40758;DHT22;26462;47.384;19.218;2023-07-20T08:58:39;29.00;59.20
40758;DHT22;26462;47.384;19.218;2023-07-20T09:01:08;29.20;60.00
40758;DHT22;26462;47.384;19.218;2023-07-20T09:03:36;29.20;59.70
40758;DHT22;26462;47.384;19.218;2023-07-20T09:06:06;29.30;60.30
40758;DHT22;26462;47.384;19.218;2023-07-20T09:08:33;29.00;60.00
40758;DHT22;26462;47.384;19.218;2023-07-20T09:11:01;29.30;60.30
40758;DHT22;26462;47.384;19.218;2023-07-20T09:13:28;29.50;61.10
40758;DHT22;26462;47.384;19.218;2023-07-20T09:15:55;29.20;60.00
40758;DHT22;26462;47.384;19.218;2023-07-20T09:18:26;29.20;60.00
40758;DHT22;26462;47.384;19.218;2023-07-20T09:21:05;29.20;59.90
40758;DHT22;26462;47.384;19.218;2023-07-20T09:23:37;29.20;60.00
40758;DHT22;26462;47.384;19.218;2023-07-20T09:26:11;29.20;59.50
40758;DHT22;26462;47.384;19.218;2023-07-20T09:28:57;29.20;60.00
40758;DHT22;26462;47.384;19.218;2023-07-20T09:31:27;29.50;59.40
40758;DHT22;26462;47.384;19.218;2023-07-20T09:34:05;29.40;60.40
40758;DHT22;26462;47.384;19.218;2023-07-20T09:36:35;29.40;58.40
40758;DHT22;26462;47.384;19.218;2023-07-20T09:39:05;29.20;58.90
40758;DHT22;26462;47.384;19.218;2023-07-20T09:41:42;29.10;59.40
40758;DHT22;26462;47.384;19.218;2023-07-20T09:44:16;29.20;59.60
40758;DHT22;26462;47.384;19.218;2023-07-20T09:46:47;29.20;58.70
40758;DHT22;26462;47.384;19.218;2023-07-20T09:49:18;29.00;57.00
40758;DHT22;26462;47.384;19.218;2023-07-20T09:51:48;28.90;57.50
40758;DHT22;26462;47.384;19.218;2023-07-20T09:54:17;29.10;57.40
40758;DHT22;26462;47.384;19.218;2023-07-20T09:56:45;29.20;58.40
40758;DHT22;26462;47.384;19.218;2023-07-20T09:59:14;29.20;57.70
40758;DHT22;26462;47.384;19.218;2023-07-20T10:01:43;29.10;57.50
40758;DHT22;26462;47.384;19.218;2023-07-20T10:04:11;29.20;57.70
40758;DHT22;26462;47.384;19.218;2023-07-20T10:06:42;29.10;57.20
40758;DHT22;26462;47.384;19.218;2023-07-20T10:09:11;29.20;57.80
40758;DHT22;26462;47.384;19.218;2023-07-20T10:11:43;29.50;57.10
40758;DHT22;26462;47.384;19.218;2023-07-20T10:14:13;29.50;57.40
40758;DHT22;26462;47.384;19.218;2023-07-20T10:16:58;29.20;57.60
40758;DHT22;26462;47.384;19.218;2023-07-20T10:19:42;29.20;57.40
40758;DHT22;26462;47.384;19.218;2023-07-20T10:22:26;29.30;56.70
40758;DHT22;26462;47.384;19.218;2023-07-20T10:24:54;29.20;56.60
40758;DHT22;26462;47.384;19.218;2023-07-20T10:27:21;29.20;57.10
40758;DHT22;26462;47.384;19.218;2023-07-20T10:29:49;29.30;57.60
40758;DHT22;26462;47.384;19.218;2023-07-20T10:32:17;29.40;56.40
40758;DHT22;26462;47.384;19.218;2023-07-20T10:34:52;29.40;56.00
40758;DHT22;26462;47.384;19.218;2023-07-20T10:38:01;29.50;56.90
40758;DHT22;26462;47.384;19.218;2023-07-20T10:40:30;29.50;57.70
40758;DHT22;26462;47.384;19.218;2023-07-20T10:43:01;29.50;58.70
40758;DHT22;26462;47.384;19.218;2023-07-20T10:45:48;29.30;56.90
40758;DHT22;26462;47.384;19.218;2023-07-20T10:48:21;29.20;58.00
40758;DHT22;26462;47.384;19.218;2023-07-20T10:51:08;29.50;57.90
40758;DHT22;26462;47.384;19.218;2023-07-20T10:53:35;29.50;57.10
40758;DHT22;26462;47.384;19.218;2023-07-20T10:56:12;29.00;57.50
40758;DHT22;26462;47.384;19.218;2023-07-20T10:58:41;28.80;58.00
40758;DHT22;26462;47.384;19.218;2023-07-20T11:01:14;28.70;58.80
40758;DHT22;26462;47.384;19.218;2023-07-20T11:03:43;29.20;59.10
40758;DHT22;26462;47.384;19.218;2023-07-20T11:09:08;28.60;58.90
40758;DHT22;26462;47.384;19.218;2023-07-20T11:11:43;28.60;59.20
40758;DHT22;26462;47.384;19.218;2023-07-20T11:14:20;28.80;59.40
40758;DHT22;26462;47.384;19.218;2023-07-20T11:16:49;28.60;60.70
40758;DHT22;26462;47.384;19.218;2023-07-20T11:24:29;28.30;61.00
40758;DHT22;26462;47.384;19.218;2023-07-20T11:26:57;28.60;61.40
40758;DHT22;26462;47.384;19.218;2023-07-20T11:29:24;28.80;60.80
40758;DHT22;26462;47.384;19.218;2023-07-20T11:31:56;28.80;60.30
40758;DHT22;26462;47.384;19.218;2023-07-20T11:34:24;28.70;60.40
40758;DHT22;26462;47.384;19.218;2023-07-20T11:36:52;29.00;61.40
40758;DHT22;26462;47.384;19.218;2023-07-20T11:39:22;28.90;60.20
40758;DHT22;26462;47.384;19.218;2023-07-20T11:41:57;29.10;59.10
40758;DHT22;26462;47.384;19.218;2023-07-20T11:44:26;28.90;57.50
40758;DHT22;26462;47.384;19.218;2023-07-20T11:47:10;29.00;58.40
40758;DHT22;26462;47.384;19.218;2023-07-20T11:49:40;29.20;58.70
40758;DHT22;26462;47.384;19.218;2023-07-20T11:52:13;29.30;59.10
40758;DHT22;26462;47.384;19.218;2023-07-20T11:54:43;29.20;57.00
40758;DHT22;26462;47.384;19.218;2023-07-20T11:57:18;29.20;58.50
40758;DHT22;26462;47.384;19.218;2023-07-20T11:59:55;29.20;58.40
40758;DHT22;26462;47.384;19.218;2023-07-20T12:02:26;29.20;57.00
40758;DHT22;26462;47.384;19.218;2023-07-20T12:04:54;29.20;56.40
40758;DHT22;26462;47.384;19.218;2023-07-20T12:07:22;29.10;56.70
40758;DHT22;26462;47.384;19.218;2023-07-20T12:10:09;29.10;56.60
40758;DHT22;26462;47.384;19.218;2023-07-20T12:12:41;29.20;57.90
40758;DHT22;26462;47.384;19.218;2023-07-20T12:15:16;29.30;56.70
40758;DHT22;26462;47.384;19.218;2023-07-20T12:17:45;29.30;57.00
40758;DHT22;26462;47.384;19.218;2023-07-20T12:20:13;29.30;56.80
40758;DHT22;26462;47.384;19.218;2023-07-20T12:22:43;29.30;57.30
40758;DHT22;26462;47.384;19.218;2023-07-20T12:25:10;29.40;56.90
40758;DHT22;26462;47.384;19.218;2023-07-20T12:27:37;29.60;57.00
40758;DHT22;26462;47.384;19.218;2023-07-20T12:30:06;29.50;56.30
40758;DHT22;26462;47.384;19.218;2023-07-20T12:32:33;29.40;56.10
40758;DHT22;26462;47.384;19.218;2023-07-20T12:35:01;29.40;56.20
40758;DHT22;26462;47.384;19.218;2023-07-20T12:37:28;29.50;57.00
40758;DHT22;26462;47.384;19.218;2023-07-20T12:39:55;29.60;55.80
40758;DHT22;26462;47.384;19.218;2023-07-20T12:42:23;29.50;55.20
40758;DHT22;26462;47.384;19.218;2023-07-20T12:44:51;29.40;56.60
40758;DHT22;26462;47.384;19.218;2023-07-20T12:47:19;29.40;55.90
40758;DHT22;26462;47.384;19.218;2023-07-20T12:49:46;29.30;54.00
40758;DHT22;26462;47.384;19.218;2023-07-20T12:52:13;29.50;54.50
40758;DHT22;26462;47.384;19.218;2023-07-20T12:54:41;29.20;54.10
40758;DHT22;26462;47.384;19.218;2023-07-20T12:57:08;29.00;53.70
40758;DHT22;26462;47.384;19.218;2023-07-20T12:59:39;29.10;53.90
40758;DHT22;26462;47.384;19.218;2023-07-20T13:02:06;29.00;55.20
40758;DHT22;26462;47.384;19.218;2023-07-20T13:04:33;29.00;56.30
40758;DHT22;26462;47.384;19.218;2023-07-20T13:07:02;29.00;55.40
40758;DHT22;26462;47.384;19.218;2023-07-20T13:09:49;28.90;55.00
40758;DHT22;26462;47.384;19.218;2023-07-20T13:12:16;28.90;54.40
40758;DHT22;26462;47.384;19.218;2023-07-20T13:14:43;29.20;54.40
40758;DHT22;26462;47.384;19.218;2023-07-20T13:17:10;29.20;54.80
40758;DHT22;26462;47.384;19.218;2023-07-20T13:19:38;29.30;55.00
40758;DHT22;26462;47.384;19.218;2023-07-20T13:22:05;29.20;53.90
40758;DHT22;26462;47.384;19.218;2023-07-20T13:24:32;29.40;54.30
40758;DHT22;26462;47.384;19.218;2023-07-20T13:26:59;29.50;53.70
40758;DHT22;26462;47.384;19.218;2023-07-20T13:29:26;29.50;54.10
40758;DHT22;26462;47.384;19.218;2023-07-20T13:31:53;29.40;54.00
40758;DHT22;26462;47.384;19.218;2023-07-20T13:34:21;29.40;53.00
40758;DHT22;26462;47.384;19.218;2023-07-20T13:36:48;29.40;53.20
40758;DHT22;26462;47.384;19.218;2023-07-20T13:39:16;29.50;53.10
40758;DHT22;26462;47.384;19.218;2023-07-20T13:41:45;29.50;52.30
40758;DHT22;26462;47.384;19.218;2023-07-20T13:44:14;29.60;53.50
40758;DHT22;26462;47.384;19.218;2023-07-20T13:46:43;29.60;53.20
40758;DHT22;26462;47.384;19.218;2023-07-20T13:49:10;29.50;52.60
40758;DHT22;26462;47.384;19.218;2023-07-20T13:51:48;29.30;53.10
40758;DHT22;26462;47.384;19.218;2023-07-20T13:54:35;29.30;53.00
40758;DHT22;26462;47.384;19.218;2023-07-20T13:57:03;29.40;53.20
40758;DHT22;26462;47.384;19.218;2023-07-20T13:59:30;29.40;52.90
40758;DHT22;26462;47.384;19.218;2023-07-20T14:01:58;29.50;53.40
40758;DHT22;26462;47.384;19.218;2023-07-20T14:04:28;29.60;53.30
40758;DHT22;26462;47.384;19.218;2023-07-20T14:06:56;29.60;52.80
40758;DHT22;26462;47.384;19.218;2023-07-20T14:09:23;29.60;53.40
40758;DHT22;26462;47.384;19.218;2023-07-20T14:11:51;29.80;53.80
40758;DHT22;26462;47.384;19.218;2023-07-20T14:14:20;29.70;53.30
40758;DHT22;26462;47.384;19.218;2023-07-20T14:16:48;29.60;52.80
40758;DHT22;26462;47.384;19.218;2023-07-20T14:19:15;29.60;53.30
40758;DHT22;26462;47.384;19.218;2023-07-20T14:21:42;29.60;53.00
40758;DHT22;26462;47.384;19.218;2023-07-20T14:24:09;29.50;52.30
40758;DHT22;26462;47.384;19.218;2023-07-20T14:26:36;29.60;52.70
40758;DHT22;26462;47.384;19.218;2023-07-20T14:29:03;29.60;52.50
40758;DHT22;26462;47.384;19.218;2023-07-20T14:31:32;29.40;52.50
40758;DHT22;26462;47.384;19.218;2023-07-20T14:33:59;29.30;52.40
40758;DHT22;26462;47.384;19.218;2023-07-20T14:36:26;29.30;52.80
40758;DHT22;26462;47.384;19.218;2023-07-20T14:38:54;29.30;52.10
40758;DHT22;26462;47.384;19.218;2023-07-20T14:41:21;29.30;52.10
40758;DHT22;26462;47.384;19.218;2023-07-20T14:43:48;29.30;53.10
40758;DHT22;26462;47.384;19.218;2023-07-20T14:46:15;29.20;52.90
40758;DHT22;26462;47.384;19.218;2023-07-20T14:48:46;29.20;53.00
40758;DHT22;26462;47.384;19.218;2023-07-20T14:51:14;29.20;53.00
40758;DHT22;26462;47.384;19.218;2023-07-20T14:53:41;29.30;53.20
40758;DHT22;26462;47.384;19.218;2023-07-20T14:56:09;29.10;52.90
40758;DHT22;26462;47.384;19.218;2023-07-20T14:58:37;29.20;53.50
40758;DHT22;26462;47.384;19.218;2023-07-20T15:01:04;29.20;53.10
40758;DHT22;26462;47.384;19.218;2023-07-20T15:03:32;29.20;54.00
40758;DHT22;26462;47.384;19.218;2023-07-20T15:05:59;29.20;53.70
40758;DHT22;26462;47.384;19.218;2023-07-20T15:08:26;29.30;53.70
40758;DHT22;26462;47.384;19.218;2023-07-20T15:10:53;29.10;53.30
40758;DHT22;26462;47.384;19.218;2023-07-20T15:13:22;29.10;53.20
40758;DHT22;26462;47.384;19.218;2023-07-20T15:15:49;29.20;53.70
40758;DHT22;26462;47.384;19.218;2023-07-20T15:18:16;29.10;53.10
40758;DHT22;26462;47.384;19.218;2023-07-20T15:20:43;29.10;53.20
40758;DHT22;26462;47.384;19.218;2023-07-20T15:23:10;29.00;53.40
40758;DHT22;26462;47.384;19.218;2023-07-20T15:25:38;29.00;53.40
40758;DHT22;26462;47.384;19.218;2023-07-20T15:28:05;29.00;53.20
40758;DHT22;26462;47.384;19.218;2023-07-20T15:30:32;29.00;53.30
40758;DHT22;26462;47.384;19.218;2023-07-20T15:33:02;29.00;53.90
40758;DHT22;26462;47.384;19.218;2023-07-20T15:35:32;29.00;53.80
40758;DHT22;26462;47.384;19.218;2023-07-20T15:38:00;28.90;53.00
40758;DHT22;26462;47.384;19.218;2023-07-20T15:40:27;28.90;52.60
40758;DHT22;26462;47.384;19.218;2023-07-20T15:42:54;28.90;53.10
40758;DHT22;26462;47.384;19.218;2023-07-20T15:45:21;28.80;52.80
40758;DHT22;26462;47.384;19.218;2023-07-20T15:47:49;28.90;53.50
40758;DHT22;26462;47.384;19.218;2023-07-20T15:50:16;28.90;53.20
40758;DHT22;26462;47.384;19.218;2023-07-20T15:52:47;28.80;52.80
40758;DHT22;26462;47.384;19.218;2023-07-20T15:55:16;28.70;53.00
40758;DHT22;26462;47.384;19.218;2023-07-20T15:57:44;28.70;53.40
40758;DHT22;26462;47.384;19.218;2023-07-20T16:00:11;28.70;53.60
40758;DHT22;26462;47.384;19.218;2023-07-20T16:02:38;28.70;53.60
40758;DHT22;26462;47.384;19.218;2023-07-20T16:05:07;28.70;54.30
40758;DHT22;26462;47.384;19.218;2023-07-20T16:07:37;28.60;53.20
40758;DHT22;26462;47.384;19.218;2023-07-20T16:10:07;28.60;53.60
40758;DHT22;26462;47.384;19.218;2023-07-20T16:12:36;28.60;53.10
40758;DHT22;26462;47.384;19.218;2023-07-20T16:15:04;28.50;53.40
40758;DHT22;26462;47.384;19.218;2023-07-20T16:17:33;28.50;54.60
40758;DHT22;26462;47.384;19.218;2023-07-20T16:20:00;28.50;54.10
40758;DHT22;26462;47.384;19.218;2023-07-20T16:22:27;28.50;53.50
40758;DHT22;26462;47.384;19.218;2023-07-20T16:24:55;28.50;53.40
40758;DHT22;26462;47.384;19.218;2023-07-20T16:27:22;28.50;53.10
40758;DHT22;26462;47.384;19.218;2023-07-20T16:29:49;28.40;52.50
40758;DHT22;26462;47.384;19.218;2023-07-20T16:32:16;28.40;52.50
40758;DHT22;26462;47.384;19.218;2023-07-20T16:34:43;28.30;52.90
40758;DHT22;26462;47.384;19.218;2023-07-20T16:37:13;28.30;53.30
40758;DHT22;26462;47.384;19.218;2023-07-20T16:39:44;28.30;52.80
40758;DHT22;26462;47.384;19.218;2023-07-20T16:42:13;28.30;52.90
40758;DHT22;26462;47.384;19.218;2023-07-20T16:44:40;28.10;53.10
40758;DHT22;26462;47.384;19.218;2023-07-20T16:47:07;28.00;52.90
40758;DHT22;26462;47.384;19.218;2023-07-20T16:49:38;27.90;53.60
40758;DHT22;26462;47.384;19.218;2023-07-20T16:52:06;27.90;53.90
40758;DHT22;26462;47.384;19.218;2023-07-20T16:54:33;27.80;53.80
40758;DHT22;26462;47.384;19.218;2023-07-20T16:57:00;27.80;54.00
40758;DHT22;26462;47.384;19.218;2023-07-20T16:59:27;27.90;54.10
40758;DHT22;26462;47.384;19.218;2023-07-20T17:01:54;27.90;54.10
40758;DHT22;26462;47.384;19.218;2023-07-20T17:04:21;27.80;54.00
40758;DHT22;26462;47.384;19.218;2023-07-20T17:06:49;27.70;53.70
40758;DHT22;26462;47.384;19.218;2023-07-20T17:09:16;27.70;53.80
40758;DHT22;26462;47.384;19.218;2023-07-20T17:11:43;27.70;53.70
40758;DHT22;26462;47.384;19.218;2023-07-20T17:14:11;27.70;53.80
40758;DHT22;26462;47.384;19.218;2023-07-20T17:16:38;27.70;54.20
40758;DHT22;26462;47.384;19.218;2023-07-20T17:19:05;27.70;54.70
40758;DHT22;26462;47.384;19.218;2023-07-20T17:21:36;27.60;54.60
40758;DHT22;26462;47.384;19.218;2023-07-20T17:24:04;27.60;55.10
40758;DHT22;26462;47.384;19.218;2023-07-20T17:26:31;27.60;55.00
40758;DHT22;26462;47.384;19.218;2023-07-20T17:29:01;27.60;55.20
40758;DHT22;26462;47.384;19.218;2023-07-20T17:31:30;27.60;55.40
40758;DHT22;26462;47.384;19.218;2023-07-20T17:33:58;27.50;55.50
40758;DHT22;26462;47.384;19.218;2023-07-20T17:36:26;27.40;55.70
40758;DHT22;26462;47.384;19.218;2023-07-20T17:38:56;27.40;55.90
40758;DHT22;26462;47.384;19.218;2023-07-20T17:41:24;27.40;55.80
40758;DHT22;26462;47.384;19.218;2023-07-20T17:43:52;27.30;56.20
40758;DHT22;26462;47.384;19.218;2023-07-20T17:46:20;27.30;56.30
40758;DHT22;26462;47.384;19.218;2023-07-20T17:48:50;27.20;56.70
40758;DHT22;26462;47.384;19.218;2023-07-20T17:51:17;27.20;56.80
40758;DHT22;26462;47.384;19.218;2023-07-20T17:53:45;27.10;56.70
40758;DHT22;26462;47.384;19.218;2023-07-20T17:56:13;27.10;57.10
40758;DHT22;26462;47.384;19.218;2023-07-20T17:58:41;27.00;57.10
40758;DHT22;26462;47.384;19.218;2023-07-20T18:01:08;27.00;57.30
40758;DHT22;26462;47.384;19.218;2023-07-20T18:03:36;26.90;56.90
40758;DHT22;26462;47.384;19.218;2023-07-20T18:06:05;26.90;57.10
40758;DHT22;26462;47.384;19.218;2023-07-20T18:08:35;26.90;57.20
40758;DHT22;26462;47.384;19.218;2023-07-20T18:11:06;27.00;57.50
40758;DHT22;26462;47.384;19.218;2023-07-20T18:13:34;26.90;57.50
40758;DHT22;26462;47.384;19.218;2023-07-20T18:16:02;26.90;57.50
40758;DHT22;26462;47.384;19.218;2023-07-20T18:18:30;26.80;57.60
40758;DHT22;26462;47.384;19.218;2023-07-20T18:20:57;26.80;57.60
40758;DHT22;26462;47.384;19.218;2023-07-20T18:23:24;26.70;57.90
40758;DHT22;26462;47.384;19.218;2023-07-20T18:25:52;26.70;58.00
40758;DHT22;26462;47.384;19.218;2023-07-20T18:28:20;26.70;58.50
40758;DHT22;26462;47.384;19.218;2023-07-20T18:30:48;26.60;58.60
40758;DHT22;26462;47.384;19.218;2023-07-20T18:33:16;26.60;59.10
40758;DHT22;26462;47.384;19.218;2023-07-20T18:35:44;26.50;59.00
40758;DHT22;26462;47.384;19.218;2023-07-20T18:38:13;26.40;59.30
40758;DHT22;26462;47.384;19.218;2023-07-20T18:40:40;26.30;59.50
40758;DHT22;26462;47.384;19.218;2023-07-20T18:43:08;26.30;59.70
40758;DHT22;26462;47.384;19.218;2023-07-20T18:45:35;26.20;60.10
40758;DHT22;26462;47.384;19.218;2023-07-20T18:48:03;26.20;60.60
40758;DHT22;26462;47.384;19.218;2023-07-20T18:50:31;26.20;60.20
40758;DHT22;26462;47.384;19.218;2023-07-20T18:52:59;26.20;60.80
40758;DHT22;26462;47.384;19.218;2023-07-20T18:55:28;26.20;61.40
40758;DHT22;26462;47.384;19.218;2023-07-20T18:57:58;26.10;61.30
40758;DHT22;26462;47.384;19.218;2023-07-20T19:00:25;26.00;62.40
40758;DHT22;26462;47.384;19.218;2023-07-20T19:02:53;26.00;61.40
40758;DHT22;26462;47.384;19.218;2023-07-20T19:05:21;25.90;61.90
40758;DHT22;26462;47.384;19.218;2023-07-20T19:07:49;25.90;63.00
40758;DHT22;26462;47.384;19.218;2023-07-20T19:10:17;25.90;62.90
40758;DHT22;26462;47.384;19.218;2023-07-20T19:12:44;25.90;63.40
40758;DHT22;26462;47.384;19.218;2023-07-20T19:15:12;25.80;63.70